sensor_id;sensor_type;location;lat;lon;timestamp;P1;durP1;ratioP1;P2;durP2;ratioP2
1811;SDS011;904;47.814;11.134;2023-02-25T00:01:24;6.82;;;1.50;;
1811;SDS011;904;47.814;11.134;2023-02-25T00:03:56;1.92;;;1.17;;
1811;SDS011;904;47.814;11.134;2023-02-25T00:06:23;3.65;;;1.52;;
1811;SDS011;904;47.814;11.134;2023-02-25T00:08:51;2.65;;;1.15;;
1811;SDS011;904;47.814;11.134;2023-02-25T00:11:19;2.55;;;1.10;;
1811;SDS011;904;47.814;11.134;2023-02-25T00:13:49;3.42;;;1.75;;
1811;SDS011;904;47.814;11.134;2023-02-25T00:16:16;2.17;;;1.20;;
1811;SDS011;904;47.814;11.134;2023-02-25T00:18:44;1.90;;;1.00;;
1811;SDS011;904;47.814;11.134;2023-02-25T00:21:12;3.60;;;1.80;;
1811;SDS011;904;47.814;11.134;2023-02-25T00:23:40;4.93;;;1.15;;
1811;SDS011;904;47.814;11.134;2023-02-25T00:26:08;3.90;;;1.63;;
1811;SDS011;904;47.814;11.134;2023-02-25T00:28:36;2.95;;;0.90;;
1811;SDS011;904;47.814;11.134;2023-02-25T00:31:07;2.70;;;1.15;;
1811;SDS011;904;47.814;11.134;2023-02-25T00:33:49;2.20;;;1.20;;
1811;SDS011;904;47.814;11.134;2023-02-25T00:36:17;2.40;;;1.23;;
1811;SDS011;904;47.814;11.134;2023-02-25T00:38:45;2.78;;;1.15;;
1811;SDS011;904;47.814;11.134;2023-02-25T00:41:14;2.40;;;0.95;;
1811;SDS011;904;47.814;11.134;2023-02-25T00:43:43;3.75;;;1.90;;
1811;SDS011;904;47.814;11.134;2023-02-25T00:46:16;2.53;;;1.20;;
1811;SDS011;904;47.814;11.134;2023-02-25T00:48:43;2.28;;;1.10;;
1811;SDS011;904;47.814;11.134;2023-02-25T00:51:10;2.75;;;1.25;;
1811;SDS011;904;47.814;11.134;2023-02-25T00:53:40;3.15;;;1.23;;
1811;SDS011;904;47.814;11.134;2023-02-25T00:56:07;1.90;;;0.93;;
1811;SDS011;904;47.814;11.134;2023-02-25T00:58:39;2.03;;;1.00;;
1811;SDS011;904;47.814;11.134;2023-02-25T01:01:16;2.20;;;1.13;;
1811;SDS011;904;47.814;11.134;2023-02-25T01:03:46;2.47;;;0.93;;
1811;SDS011;904;47.814;11.134;2023-02-25T01:06:14;2.05;;;0.95;;
1811;SDS011;904;47.814;11.134;2023-02-25T01:08:41;2.65;;;0.95;;
1811;SDS011;904;47.814;11.134;2023-02-25T01:11:10;2.40;;;0.90;;
1811;SDS011;904;47.814;11.134;2023-02-25T01:13:38;2.35;;;1.10;;
1811;SDS011;904;47.814;11.134;2023-02-25T01:16:10;2.13;;;1.20;;
1811;SDS011;904;47.814;11.134;2023-02-25T01:18:39;2.17;;;1.10;;
1811;SDS011;904;47.814;11.134;2023-02-25T01:21:13;3.05;;;1.60;;
1811;SDS011;904;47.814;11.134;2023-02-25T01:23:44;2.67;;;1.13;;
1811;SDS011;904;47.814;11.134;2023-02-25T01:26:11;2.53;;;1.40;;
1811;SDS011;904;47.814;11.134;2023-02-25T01:28:39;3.15;;;1.63;;
1811;SDS011;904;47.814;11.134;2023-02-25T01:31:07;3.08;;;1.60;;
1811;SDS011;904;47.814;11.134;2023-02-25T01:33:43;3.25;;;1.85;;
1811;SDS011;904;47.814;11.134;2023-02-25T01:36:11;3.80;;;2.00;;
1811;SDS011;904;47.814;11.134;2023-02-25T01:38:38;3.90;;;1.98;;
1811;SDS011;904;47.814;11.134;2023-02-25T01:41:06;3.00;;;1.40;;
1811;SDS011;904;47.814;11.134;2023-02-25T01:43:33;3.10;;;1.58;;
1811;SDS011;904;47.814;11.134;2023-02-25T01:46:00;3.67;;;1.77;;
1811;SDS011;904;47.814;11.134;2023-02-25T01:48:27;3.97;;;1.55;;
1811;SDS011;904;47.814;11.134;2023-02-25T01:50:58;2.35;;;1.10;;
1811;SDS011;904;47.814;11.134;2023-02-25T01:53:28;2.83;;;1.13;;
1811;SDS011;904;47.814;11.134;2023-02-25T01:55:59;2.17;;;1.20;;
1811;SDS011;904;47.814;11.134;2023-02-25T01:58:28;2.25;;;1.15;;
1811;SDS011;904;47.814;11.134;2023-02-25T02:00:57;2.13;;;1.05;;
1811;SDS011;904;47.814;11.134;2023-02-25T02:03:25;4.55;;;1.45;;
1811;SDS011;904;47.814;11.134;2023-02-25T02:06:00;2.47;;;1.25;;
1811;SDS011;904;47.814;11.134;2023-02-25T02:08:32;3.92;;;1.45;;
1811;SDS011;904;47.814;11.134;2023-02-25T02:11:00;2.75;;;1.30;;
1811;SDS011;904;47.814;11.134;2023-02-25T02:13:28;2.80;;;1.40;;
1811;SDS011;904;47.814;11.134;2023-02-25T02:16:00;2.35;;;1.20;;
1811;SDS011;904;47.814;11.134;2023-02-25T02:18:40;2.35;;;1.35;;
1811;SDS011;904;47.814;11.134;2023-02-25T02:21:21;1.95;;;1.02;;
1811;SDS011;904;47.814;11.134;2023-02-25T02:24:15;2.88;;;1.20;;
1811;SDS011;904;47.814;11.134;2023-02-25T02:27:06;3.15;;;1.35;;
1811;SDS011;904;47.814;11.134;2023-02-25T02:32:39;2.70;;;1.15;;
1811;SDS011;904;47.814;11.134;2023-02-25T02:35:14;2.25;;;1.35;;
1811;SDS011;904;47.814;11.134;2023-02-25T02:37:50;2.55;;;1.33;;
1811;SDS011;904;47.814;11.134;2023-02-25T02:40:29;2.70;;;1.20;;
1811;SDS011;904;47.814;11.134;2023-02-25T02:43:05;2.40;;;1.40;;
1811;SDS011;904;47.814;11.134;2023-02-25T02:45:42;3.53;;;1.70;;
1811;SDS011;904;47.814;11.134;2023-02-25T02:48:16;2.78;;;1.38;;
1811;SDS011;904;47.814;11.134;2023-02-25T02:50:47;2.80;;;0.90;;
1811;SDS011;904;47.814;11.134;2023-02-25T02:53:18;2.70;;;1.20;;
1811;SDS011;904;47.814;11.134;2023-02-25T02:55:51;2.63;;;1.45;;
1811;SDS011;904;47.814;11.134;2023-02-25T02:58:21;3.65;;;1.17;;
1811;SDS011;904;47.814;11.134;2023-02-25T03:00:53;2.50;;;1.50;;
1811;SDS011;904;47.814;11.134;2023-02-25T03:03:26;3.17;;;1.52;;
1811;SDS011;904;47.814;11.134;2023-02-25T03:06:06;3.47;;;1.55;;
1811;SDS011;904;47.814;11.134;2023-02-25T03:08:37;4.18;;;1.80;;
1811;SDS011;904;47.814;11.134;2023-02-25T03:11:09;3.45;;;1.60;;
1811;SDS011;904;47.814;11.134;2023-02-25T03:13:36;2.47;;;1.40;;
1811;SDS011;904;47.814;11.134;2023-02-25T03:16:11;3.53;;;1.30;;
1811;SDS011;904;47.814;11.134;2023-02-25T03:18:47;3.78;;;2.10;;
1811;SDS011;904;47.814;11.134;2023-02-25T03:21:18;2.97;;;1.40;;
1811;SDS011;904;47.814;11.134;2023-02-25T03:23:50;2.40;;;1.35;;
1811;SDS011;904;47.814;11.134;2023-02-25T03:26:20;2.67;;;1.52;;
1811;SDS011;904;47.814;11.134;2023-02-25T03:28:49;3.10;;;1.48;;
1811;SDS011;904;47.814;11.134;2023-02-25T03:31:17;2.95;;;1.25;;
1811;SDS011;904;47.814;11.134;2023-02-25T03:33:49;2.50;;;1.30;;
1811;SDS011;904;47.814;11.134;2023-02-25T03:36:20;2.28;;;1.25;;
1811;SDS011;904;47.814;11.134;2023-02-25T03:38:53;2.67;;;1.40;;
1811;SDS011;904;47.814;11.134;2023-02-25T03:41:24;2.95;;;1.80;;
1811;SDS011;904;47.814;11.134;2023-02-25T03:43:55;4.00;;;1.98;;
1811;SDS011;904;47.814;11.134;2023-02-25T03:46:25;2.55;;;1.38;;
1811;SDS011;904;47.814;11.134;2023-02-25T03:48:55;3.15;;;1.42;;
1811;SDS011;904;47.814;11.134;2023-02-25T03:51:24;2.85;;;1.55;;
1811;SDS011;904;47.814;11.134;2023-02-25T03:53:55;2.40;;;1.40;;
1811;SDS011;904;47.814;11.134;2023-02-25T03:56:22;2.95;;;1.58;;
1811;SDS011;904;47.814;11.134;2023-02-25T03:58:49;2.55;;;1.45;;
1811;SDS011;904;47.814;11.134;2023-02-25T04:01:17;2.80;;;1.40;;
1811;SDS011;904;47.814;11.134;2023-02-25T04:03:49;3.58;;;1.55;;
1811;SDS011;904;47.814;11.134;2023-02-25T04:06:19;3.40;;;1.48;;
1811;SDS011;904;47.814;11.134;2023-02-25T04:08:47;3.28;;;1.60;;
1811;SDS011;904;47.814;11.134;2023-02-25T04:11:14;2.70;;;1.60;;
1811;SDS011;904;47.814;11.134;2023-02-25T04:13:41;2.92;;;1.50;;
1811;SDS011;904;47.814;11.134;2023-02-25T04:16:08;3.03;;;1.38;;
1811;SDS011;904;47.814;11.134;2023-02-25T04:18:35;5.25;;;2.97;;
1811;SDS011;904;47.814;11.134;2023-02-25T04:21:03;5.68;;;2.97;;
1811;SDS011;904;47.814;11.134;2023-02-25T04:23:32;3.95;;;2.25;;
1811;SDS011;904;47.814;11.134;2023-02-25T04:25:59;2.78;;;1.30;;
1811;SDS011;904;47.814;11.134;2023-02-25T04:28:26;3.17;;;1.92;;
1811;SDS011;904;47.814;11.134;2023-02-25T04:30:53;3.40;;;1.80;;
1811;SDS011;904;47.814;11.134;2023-02-25T04:33:20;2.75;;;1.73;;
1811;SDS011;904;47.814;11.134;2023-02-25T04:35:47;5.32;;;1.98;;
1811;SDS011;904;47.814;11.134;2023-02-25T04:38:15;3.08;;;1.73;;
1811;SDS011;904;47.814;11.134;2023-02-25T04:40:43;2.97;;;1.38;;
1811;SDS011;904;47.814;11.134;2023-02-25T04:43:11;3.33;;;1.48;;
1811;SDS011;904;47.814;11.134;2023-02-25T04:45:38;3.58;;;1.77;;
1811;SDS011;904;47.814;11.134;2023-02-25T04:48:05;2.10;;;1.20;;
1811;SDS011;904;47.814;11.134;2023-02-25T04:50:32;2.50;;;1.40;;
1811;SDS011;904;47.814;11.134;2023-02-25T04:52:59;4.68;;;1.45;;
1811;SDS011;904;47.814;11.134;2023-02-25T04:55:27;4.57;;;1.35;;
1811;SDS011;904;47.814;11.134;2023-02-25T04:57:56;3.50;;;2.08;;
1811;SDS011;904;47.814;11.134;2023-02-25T05:00:23;3.45;;;1.90;;
1811;SDS011;904;47.814;11.134;2023-02-25T05:02:52;3.40;;;1.92;;
1811;SDS011;904;47.814;11.134;2023-02-25T05:05:19;5.00;;;1.92;;
1811;SDS011;904;47.814;11.134;2023-02-25T05:07:46;5.05;;;2.33;;
1811;SDS011;904;47.814;11.134;2023-02-25T05:10:13;3.63;;;1.50;;
1811;SDS011;904;47.814;11.134;2023-02-25T05:12:41;2.72;;;1.45;;
1811;SDS011;904;47.814;11.134;2023-02-25T05:15:10;2.72;;;1.30;;
1811;SDS011;904;47.814;11.134;2023-02-25T05:17:37;4.38;;;1.70;;
1811;SDS011;904;47.814;11.134;2023-02-25T05:20:05;3.10;;;1.17;;
1811;SDS011;904;47.814;11.134;2023-02-25T05:22:36;2.25;;;1.15;;
1811;SDS011;904;47.814;11.134;2023-02-25T05:25:04;2.10;;;1.15;;
1811;SDS011;904;47.814;11.134;2023-02-25T05:27:31;2.92;;;1.48;;
1811;SDS011;904;47.814;11.134;2023-02-25T05:29:59;3.97;;;1.60;;
1811;SDS011;904;47.814;11.134;2023-02-25T05:32:28;3.53;;;2.10;;
1811;SDS011;904;47.814;11.134;2023-02-25T05:34:55;3.30;;;2.10;;
1811;SDS011;904;47.814;11.134;2023-02-25T05:37:22;3.85;;;2.20;;
1811;SDS011;904;47.814;11.134;2023-02-25T05:39:49;2.70;;;1.35;;
1811;SDS011;904;47.814;11.134;2023-02-25T05:42:16;4.22;;;2.40;;
1811;SDS011;904;47.814;11.134;2023-02-25T05:44:43;3.70;;;1.65;;
1811;SDS011;904;47.814;11.134;2023-02-25T05:47:10;3.40;;;1.88;;
1811;SDS011;904;47.814;11.134;2023-02-25T05:49:40;4.47;;;2.10;;
1811;SDS011;904;47.814;11.134;2023-02-25T05:52:08;3.92;;;1.70;;
1811;SDS011;904;47.814;11.134;2023-02-25T05:54:35;3.33;;;1.90;;
1811;SDS011;904;47.814;11.134;2023-02-25T05:57:02;5.60;;;2.38;;
1811;SDS011;904;47.814;11.134;2023-02-25T05:59:29;6.75;;;3.20;;
1811;SDS011;904;47.814;11.134;2023-02-25T06:01:56;5.90;;;3.15;;
1811;SDS011;904;47.814;11.134;2023-02-25T06:04:24;4.95;;;2.65;;
1811;SDS011;904;47.814;11.134;2023-02-25T06:06:53;6.20;;;2.88;;
1811;SDS011;904;47.814;11.134;2023-02-25T06:09:21;5.60;;;2.95;;
1811;SDS011;904;47.814;11.134;2023-02-25T06:11:48;5.53;;;2.85;;
1811;SDS011;904;47.814;11.134;2023-02-25T06:14:15;3.80;;;2.17;;
1811;SDS011;904;47.814;11.134;2023-02-25T06:16:42;3.65;;;1.92;;
1811;SDS011;904;47.814;11.134;2023-02-25T06:19:09;3.90;;;2.10;;
1811;SDS011;904;47.814;11.134;2023-02-25T06:21:38;7.07;;;5.78;;
1811;SDS011;904;47.814;11.134;2023-02-25T06:24:07;5.03;;;3.35;;
1811;SDS011;904;47.814;11.134;2023-02-25T06:26:35;6.55;;;3.97;;
1811;SDS011;904;47.814;11.134;2023-02-25T06:29:07;6.53;;;3.53;;
1811;SDS011;904;47.814;11.134;2023-02-25T06:31:34;5.07;;;3.10;;
1811;SDS011;904;47.814;11.134;2023-02-25T06:34:01;4.00;;;2.00;;
1811;SDS011;904;47.814;11.134;2023-02-25T06:36:29;4.03;;;1.90;;
1811;SDS011;904;47.814;11.134;2023-02-25T06:38:57;3.55;;;1.83;;
1811;SDS011;904;47.814;11.134;2023-02-25T06:41:26;2.65;;;1.42;;
1811;SDS011;904;47.814;11.134;2023-02-25T06:43:53;2.90;;;1.60;;
1811;SDS011;904;47.814;11.134;2023-02-25T06:46:21;3.25;;;1.85;;
1811;SDS011;904;47.814;11.134;2023-02-25T06:48:49;4.15;;;2.20;;
1811;SDS011;904;47.814;11.134;2023-02-25T06:51:18;3.80;;;2.03;;
1811;SDS011;904;47.814;11.134;2023-02-25T06:53:45;4.88;;;2.20;;
1811;SDS011;904;47.814;11.134;2023-02-25T06:56:12;4.97;;;3.40;;
1811;SDS011;904;47.814;11.134;2023-02-25T06:58:43;11.65;;;4.75;;
1811;SDS011;904;47.814;11.134;2023-02-25T07:01:11;5.80;;;3.65;;
1811;SDS011;904;47.814;11.134;2023-02-25T07:03:39;6.45;;;3.67;;
1811;SDS011;904;47.814;11.134;2023-02-25T07:06:07;6.28;;;4.25;;
1811;SDS011;904;47.814;11.134;2023-02-25T07:08:34;5.85;;;4.70;;
1811;SDS011;904;47.814;11.134;2023-02-25T07:11:12;7.07;;;4.10;;
1811;SDS011;904;47.814;11.134;2023-02-25T07:13:52;6.50;;;4.25;;
1811;SDS011;904;47.814;11.134;2023-02-25T07:16:19;5.75;;;3.45;;
1811;SDS011;904;47.814;11.134;2023-02-25T07:18:47;5.65;;;3.25;;
1811;SDS011;904;47.814;11.134;2023-02-25T07:21:15;5.57;;;3.75;;
1811;SDS011;904;47.814;11.134;2023-02-25T07:23:42;6.65;;;3.42;;
1811;SDS011;904;47.814;11.134;2023-02-25T07:26:11;5.30;;;3.08;;
1811;SDS011;904;47.814;11.134;2023-02-25T07:28:39;15.77;;;5.20;;
1811;SDS011;904;47.814;11.134;2023-02-25T07:31:09;7.80;;;4.20;;
1811;SDS011;904;47.814;11.134;2023-02-25T07:33:37;7.88;;;3.70;;
1811;SDS011;904;47.814;11.134;2023-02-25T07:36:05;5.40;;;3.60;;
1811;SDS011;904;47.814;11.134;2023-02-25T07:38:33;5.97;;;4.65;;
1811;SDS011;904;47.814;11.134;2023-02-25T07:41:02;7.32;;;3.25;;
1811;SDS011;904;47.814;11.134;2023-02-25T07:43:30;14.80;;;8.38;;
1811;SDS011;904;47.814;11.134;2023-02-25T07:45:57;14.95;;;8.40;;
1811;SDS011;904;47.814;11.134;2023-02-25T07:48:25;11.55;;;6.20;;
1811;SDS011;904;47.814;11.134;2023-02-25T07:50:53;7.22;;;5.47;;
1811;SDS011;904;47.814;11.134;2023-02-25T07:53:20;11.18;;;4.10;;
1811;SDS011;904;47.814;11.134;2023-02-25T07:55:48;6.60;;;4.57;;
1811;SDS011;904;47.814;11.134;2023-02-25T07:58:15;7.28;;;4.45;;
1811;SDS011;904;47.814;11.134;2023-02-25T08:00:42;8.80;;;4.47;;
1811;SDS011;904;47.814;11.134;2023-02-25T08:03:11;5.65;;;3.75;;
1811;SDS011;904;47.814;11.134;2023-02-25T08:05:39;5.70;;;3.80;;
1811;SDS011;904;47.814;11.134;2023-02-25T08:08:06;8.23;;;4.65;;
1811;SDS011;904;47.814;11.134;2023-02-25T08:10:33;7.15;;;4.72;;
1811;SDS011;904;47.814;11.134;2023-02-25T08:13:02;9.15;;;4.65;;
1811;SDS011;904;47.814;11.134;2023-02-25T08:15:28;7.82;;;6.00;;
1811;SDS011;904;47.814;11.134;2023-02-25T08:17:56;13.90;;;6.40;;
1811;SDS011;904;47.814;11.134;2023-02-25T08:20:23;9.00;;;5.22;;
1811;SDS011;904;47.814;11.134;2023-02-25T08:22:51;8.13;;;5.15;;
1811;SDS011;904;47.814;11.134;2023-02-25T08:25:21;9.27;;;6.03;;
1811;SDS011;904;47.814;11.134;2023-02-25T08:27:48;9.13;;;6.15;;
1811;SDS011;904;47.814;11.134;2023-02-25T08:30:15;10.20;;;6.03;;
1811;SDS011;904;47.814;11.134;2023-02-25T08:32:42;7.00;;;4.75;;
1811;SDS011;904;47.814;11.134;2023-02-25T08:35:09;9.85;;;7.13;;
1811;SDS011;904;47.814;11.134;2023-02-25T08:37:37;11.32;;;6.72;;
1811;SDS011;904;47.814;11.134;2023-02-25T08:40:06;22.05;;;19.85;;
1811;SDS011;904;47.814;11.134;2023-02-25T08:42:34;13.95;;;9.40;;
1811;SDS011;904;47.814;11.134;2023-02-25T08:45:03;11.30;;;8.23;;
1811;SDS011;904;47.814;11.134;2023-02-25T08:47:31;6.85;;;4.32;;
1811;SDS011;904;47.814;11.134;2023-02-25T08:49:58;6.63;;;5.30;;
1811;SDS011;904;47.814;11.134;2023-02-25T08:52:26;11.48;;;5.50;;
1811;SDS011;904;47.814;11.134;2023-02-25T08:54:57;7.15;;;4.40;;
1811;SDS011;904;47.814;11.134;2023-02-25T08:57:27;5.53;;;3.55;;
1811;SDS011;904;47.814;11.134;2023-02-25T08:59:55;7.68;;;4.00;;
1811;SDS011;904;47.814;11.134;2023-02-25T09:02:22;5.28;;;3.25;;
1811;SDS011;904;47.814;11.134;2023-02-25T09:04:49;8.45;;;3.38;;
1811;SDS011;904;47.814;11.134;2023-02-25T09:07:23;11.15;;;5.13;;
1811;SDS011;904;47.814;11.134;2023-02-25T09:09:50;6.50;;;3.95;;
1811;SDS011;904;47.814;11.134;2023-02-25T09:12:17;7.90;;;4.45;;
1811;SDS011;904;47.814;11.134;2023-02-25T09:14:46;15.15;;;6.00;;
1811;SDS011;904;47.814;11.134;2023-02-25T09:17:14;4.75;;;3.45;;
1811;SDS011;904;47.814;11.134;2023-02-25T09:19:41;6.80;;;4.00;;
1811;SDS011;904;47.814;11.134;2023-02-25T09:22:09;11.88;;;4.30;;
1811;SDS011;904;47.814;11.134;2023-02-25T09:24:36;6.32;;;4.88;;
1811;SDS011;904;47.814;11.134;2023-02-25T09:27:03;5.80;;;3.58;;
1811;SDS011;904;47.814;11.134;2023-02-25T09:29:32;8.60;;;3.85;;
1811;SDS011;904;47.814;11.134;2023-02-25T09:32:01;7.20;;;3.53;;
1811;SDS011;904;47.814;11.134;2023-02-25T09:34:28;5.10;;;3.20;;
1811;SDS011;904;47.814;11.134;2023-02-25T09:36:58;7.40;;;4.25;;
1811;SDS011;904;47.814;11.134;2023-02-25T09:39:25;11.30;;;3.17;;
1811;SDS011;904;47.814;11.134;2023-02-25T09:41:53;5.50;;;3.25;;
1811;SDS011;904;47.814;11.134;2023-02-25T09:44:26;5.85;;;4.38;;
1811;SDS011;904;47.814;11.134;2023-02-25T09:46:56;16.77;;;9.25;;
1811;SDS011;904;47.814;11.134;2023-02-25T09:49:30;5.63;;;3.20;;
1811;SDS011;904;47.814;11.134;2023-02-25T09:52:02;7.32;;;4.10;;
1811;SDS011;904;47.814;11.134;2023-02-25T09:54:39;19.23;;;15.90;;
1811;SDS011;904;47.814;11.134;2023-02-25T09:57:10;7.88;;;5.47;;
1811;SDS011;904;47.814;11.134;2023-02-25T09:59:43;19.52;;;10.05;;
1811;SDS011;904;47.814;11.134;2023-02-25T10:02:20;8.68;;;5.55;;
1811;SDS011;904;47.814;11.134;2023-02-25T10:04:56;14.50;;;9.52;;
1811;SDS011;904;47.814;11.134;2023-02-25T10:07:34;16.58;;;10.07;;
1811;SDS011;904;47.814;11.134;2023-02-25T10:10:07;11.00;;;7.80;;
1811;SDS011;904;47.814;11.134;2023-02-25T10:12:40;10.95;;;5.35;;
1811;SDS011;904;47.814;11.134;2023-02-25T10:15:23;11.85;;;7.45;;
1811;SDS011;904;47.814;11.134;2023-02-25T10:18:05;12.65;;;8.57;;
1811;SDS011;904;47.814;11.134;2023-02-25T10:20:55;7.25;;;4.85;;
1811;SDS011;904;47.814;11.134;2023-02-25T10:23:40;7.00;;;4.63;;
1811;SDS011;904;47.814;11.134;2023-02-25T10:26:25;6.80;;;4.00;;
1811;SDS011;904;47.814;11.134;2023-02-25T10:28:57;5.82;;;3.35;;
1811;SDS011;904;47.814;11.134;2023-02-25T10:31:29;6.47;;;3.58;;
1811;SDS011;904;47.814;11.134;2023-02-25T10:33:59;6.20;;;2.90;;
1811;SDS011;904;47.814;11.134;2023-02-25T10:36:40;4.13;;;2.22;;
1811;SDS011;904;47.814;11.134;2023-02-25T10:39:11;8.73;;;3.22;;
1811;SDS011;904;47.814;11.134;2023-02-25T10:41:38;4.25;;;2.72;;
1811;SDS011;904;47.814;11.134;2023-02-25T10:44:07;5.53;;;3.25;;
1811;SDS011;904;47.814;11.134;2023-02-25T10:46:37;5.78;;;2.40;;
1811;SDS011;904;47.814;11.134;2023-02-25T10:49:16;5.05;;;3.00;;
1811;SDS011;904;47.814;11.134;2023-02-25T10:51:58;4.72;;;2.95;;
1811;SDS011;904;47.814;11.134;2023-02-25T10:54:27;5.65;;;3.53;;
1811;SDS011;904;47.814;11.134;2023-02-25T10:56:55;12.27;;;3.38;;
1811;SDS011;904;47.814;11.134;2023-02-25T10:59:27;7.65;;;3.08;;
1811;SDS011;904;47.814;11.134;2023-02-25T11:01:57;9.30;;;3.67;;
1811;SDS011;904;47.814;11.134;2023-02-25T11:04:28;6.55;;;4.20;;
1811;SDS011;904;47.814;11.134;2023-02-25T11:07:21;5.15;;;3.45;;
1811;SDS011;904;47.814;11.134;2023-02-25T11:10:12;9.60;;;4.50;;
1811;SDS011;904;47.814;11.134;2023-02-25T11:12:41;6.38;;;3.60;;
1811;SDS011;904;47.814;11.134;2023-02-25T11:18:06;7.03;;;4.50;;
1811;SDS011;904;47.814;11.134;2023-02-25T11:20:48;7.35;;;3.65;;
1811;SDS011;904;47.814;11.134;2023-02-25T11:23:19;5.63;;;3.60;;
1811;SDS011;904;47.814;11.134;2023-02-25T11:25:48;7.50;;;3.33;;
1811;SDS011;904;47.814;11.134;2023-02-25T11:28:19;4.95;;;3.13;;
1811;SDS011;904;47.814;11.134;2023-02-25T11:30:53;5.57;;;3.53;;
1811;SDS011;904;47.814;11.134;2023-02-25T11:33:30;5.25;;;2.90;;
1811;SDS011;904;47.814;11.134;2023-02-25T11:36:01;14.73;;;4.32;;
1811;SDS011;904;47.814;11.134;2023-02-25T11:38:31;11.82;;;6.00;;
1811;SDS011;904;47.814;11.134;2023-02-25T11:41:00;7.28;;;3.50;;
1811;SDS011;904;47.814;11.134;2023-02-25T11:43:33;11.85;;;3.90;;
1811;SDS011;904;47.814;11.134;2023-02-25T11:46:04;4.90;;;3.05;;
1811;SDS011;904;47.814;11.134;2023-02-25T11:48:38;5.18;;;2.20;;
1811;SDS011;904;47.814;11.134;2023-02-25T11:51:18;5.85;;;2.40;;
1811;SDS011;904;47.814;11.134;2023-02-25T11:56:50;18.23;;;6.95;;
1811;SDS011;904;47.814;11.134;2023-02-25T11:59:27;12.93;;;5.60;;
1811;SDS011;904;47.814;11.134;2023-02-25T12:08:20;12.95;;;6.05;;
1811;SDS011;904;47.814;11.134;2023-02-25T12:11:34;11.82;;;5.22;;
1811;SDS011;904;47.814;11.134;2023-02-25T12:17:28;10.50;;;4.70;;
1811;SDS011;904;47.814;11.134;2023-02-25T12:20:36;8.73;;;4.78;;
1811;SDS011;904;47.814;11.134;2023-02-25T12:26:54;10.35;;;6.72;;
1811;SDS011;904;47.814;11.134;2023-02-25T12:29:37;6.20;;;3.95;;
1811;SDS011;904;47.814;11.134;2023-02-25T12:32:41;7.60;;;3.83;;
1811;SDS011;904;47.814;11.134;2023-02-25T12:35:24;9.15;;;5.05;;
1811;SDS011;904;47.814;11.134;2023-02-25T12:38:28;9.82;;;5.13;;
1811;SDS011;904;47.814;11.134;2023-02-25T12:41:29;9.25;;;5.20;;
1811;SDS011;904;47.814;11.134;2023-02-25T12:47:15;6.10;;;4.15;;
1811;SDS011;904;47.814;11.134;2023-02-25T12:49:59;13.30;;;5.72;;
1811;SDS011;904;47.814;11.134;2023-02-25T12:52:47;8.40;;;4.40;;
1811;SDS011;904;47.814;11.134;2023-02-25T12:55:40;8.68;;;6.07;;
1811;SDS011;904;47.814;11.134;2023-02-25T12:58:26;11.38;;;4.45;;
1811;SDS011;904;47.814;11.134;2023-02-25T13:01:21;13.68;;;6.47;;
1811;SDS011;904;47.814;11.134;2023-02-25T13:10:16;11.75;;;4.75;;
1811;SDS011;904;47.814;11.134;2023-02-25T13:12:58;9.52;;;4.40;;
1811;SDS011;904;47.814;11.134;2023-02-25T13:15:35;6.32;;;4.07;;
1811;SDS011;904;47.814;11.134;2023-02-25T13:18:17;6.95;;;3.75;;
1811;SDS011;904;47.814;11.134;2023-02-25T13:20:57;10.73;;;3.47;;
1811;SDS011;904;47.814;11.134;2023-02-25T13:23:50;7.93;;;4.40;;
1811;SDS011;904;47.814;11.134;2023-02-25T13:26:43;11.02;;;5.03;;
1811;SDS011;904;47.814;11.134;2023-02-25T13:29:24;6.30;;;4.65;;
1811;SDS011;904;47.814;11.134;2023-02-25T13:32:03;8.02;;;4.40;;
1811;SDS011;904;47.814;11.134;2023-02-25T13:34:45;7.38;;;4.05;;
1811;SDS011;904;47.814;11.134;2023-02-25T13:37:26;9.85;;;5.13;;
1811;SDS011;904;47.814;11.134;2023-02-25T13:43:13;10.63;;;3.97;;
1811;SDS011;904;47.814;11.134;2023-02-25T13:46:01;11.85;;;5.20;;
1811;SDS011;904;47.814;11.134;2023-02-25T13:49:05;8.48;;;4.95;;
1811;SDS011;904;47.814;11.134;2023-02-25T13:54:47;10.00;;;4.78;;
1811;SDS011;904;47.814;11.134;2023-02-25T13:57:33;8.30;;;4.35;;
1811;SDS011;904;47.814;11.134;2023-02-25T14:06:19;6.95;;;3.70;;
1811;SDS011;904;47.814;11.134;2023-02-25T14:09:12;9.18;;;4.50;;
1811;SDS011;904;47.814;11.134;2023-02-25T14:11:53;8.18;;;4.38;;
1811;SDS011;904;47.814;11.134;2023-02-25T14:17:33;5.28;;;2.83;;
1811;SDS011;904;47.814;11.134;2023-02-25T14:20:27;6.75;;;3.63;;
1811;SDS011;904;47.814;11.134;2023-02-25T14:23:04;7.05;;;4.00;;
1811;SDS011;904;47.814;11.134;2023-02-25T14:25:49;4.97;;;3.75;;
1811;SDS011;904;47.814;11.134;2023-02-25T14:28:41;6.10;;;4.00;;
1811;SDS011;904;47.814;11.134;2023-02-25T14:31:25;7.88;;;3.83;;
1811;SDS011;904;47.814;11.134;2023-02-25T14:34:06;4.93;;;3.63;;
1811;SDS011;904;47.814;11.134;2023-02-25T14:37:00;6.30;;;3.13;;
1811;SDS011;904;47.814;11.134;2023-02-25T14:39:45;10.75;;;4.60;;
1811;SDS011;904;47.814;11.134;2023-02-25T14:42:39;5.88;;;3.70;;
1811;SDS011;904;47.814;11.134;2023-02-25T14:45:19;5.35;;;3.85;;
1811;SDS011;904;47.814;11.134;2023-02-25T14:47:52;10.75;;;5.80;;
1811;SDS011;904;47.814;11.134;2023-02-25T14:50:24;6.82;;;4.35;;
1811;SDS011;904;47.814;11.134;2023-02-25T14:52:58;6.25;;;3.88;;
1811;SDS011;904;47.814;11.134;2023-02-25T14:55:49;13.15;;;4.13;;
1811;SDS011;904;47.814;11.134;2023-02-25T14:58:40;9.82;;;4.75;;
1811;SDS011;904;47.814;11.134;2023-02-25T15:01:38;7.97;;;5.78;;
1811;SDS011;904;47.814;11.134;2023-02-25T15:04:22;6.53;;;4.55;;
1811;SDS011;904;47.814;11.134;2023-02-25T15:07:05;7.45;;;4.80;;
1811;SDS011;904;47.814;11.134;2023-02-25T15:09:45;6.07;;;4.43;;
1811;SDS011;904;47.814;11.134;2023-02-25T15:21:37;7.60;;;3.92;;
1811;SDS011;904;47.814;11.134;2023-02-25T15:24:09;6.05;;;3.65;;
1811;SDS011;904;47.814;11.134;2023-02-25T15:26:58;7.80;;;3.47;;
1811;SDS011;904;47.814;11.134;2023-02-25T15:32:24;4.50;;;3.30;;
1811;SDS011;904;47.814;11.134;2023-02-25T15:34:55;5.18;;;2.92;;
1811;SDS011;904;47.814;11.134;2023-02-25T15:37:31;8.10;;;4.38;;
1811;SDS011;904;47.814;11.134;2023-02-25T15:40:00;5.30;;;3.25;;
1811;SDS011;904;47.814;11.134;2023-02-25T15:42:45;8.73;;;4.43;;
1811;SDS011;904;47.814;11.134;2023-02-25T15:48:32;5.32;;;3.40;;
1811;SDS011;904;47.814;11.134;2023-02-25T15:51:04;6.60;;;4.20;;
1811;SDS011;904;47.814;11.134;2023-02-25T15:53:36;6.20;;;3.58;;
1811;SDS011;904;47.814;11.134;2023-02-25T15:56:25;6.40;;;4.63;;
1811;SDS011;904;47.814;11.134;2023-02-25T15:59:08;4.95;;;3.67;;
1811;SDS011;904;47.814;11.134;2023-02-25T16:01:40;6.65;;;4.05;;
1811;SDS011;904;47.814;11.134;2023-02-25T16:07:10;5.57;;;3.40;;
1811;SDS011;904;47.814;11.134;2023-02-25T16:09:40;6.10;;;3.60;;
1811;SDS011;904;47.814;11.134;2023-02-25T16:12:13;7.38;;;4.15;;
1811;SDS011;904;47.814;11.134;2023-02-25T16:14:41;6.03;;;4.60;;
1811;SDS011;904;47.814;11.134;2023-02-25T16:17:13;7.40;;;4.18;;
1811;SDS011;904;47.814;11.134;2023-02-25T16:19:55;8.02;;;4.90;;
1811;SDS011;904;47.814;11.134;2023-02-25T16:22:25;8.27;;;5.00;;
1811;SDS011;904;47.814;11.134;2023-02-25T16:24:55;6.47;;;4.20;;
1811;SDS011;904;47.814;11.134;2023-02-25T16:27:30;8.68;;;3.78;;
1811;SDS011;904;47.814;11.134;2023-02-25T16:30:15;6.22;;;3.80;;
1811;SDS011;904;47.814;11.134;2023-02-25T16:32:49;12.95;;;4.30;;
1811;SDS011;904;47.814;11.134;2023-02-25T16:35:27;5.45;;;3.85;;
1811;SDS011;904;47.814;11.134;2023-02-25T16:38:02;8.93;;;4.32;;
1811;SDS011;904;47.814;11.134;2023-02-25T16:40:34;5.60;;;3.83;;
1811;SDS011;904;47.814;11.134;2023-02-25T16:43:03;5.45;;;3.72;;
1811;SDS011;904;47.814;11.134;2023-02-25T16:45:32;6.85;;;4.25;;
1811;SDS011;904;47.814;11.134;2023-02-25T16:48:03;8.38;;;4.65;;
1811;SDS011;904;47.814;11.134;2023-02-25T16:50:33;9.40;;;5.00;;
1811;SDS011;904;47.814;11.134;2023-02-25T16:53:02;7.20;;;4.15;;